sensor_id;sensor_type;location;lat;lon;timestamp;P1;durP1;ratioP1;P2;durP2;ratioP2
69434;SDS011;56625;54.322;18.582;2023-03-04T00:02:17;10.30;;;4.50;;
69434;SDS011;56625;54.322;18.582;2023-03-04T00:04:43;7.90;;;3.10;;
69434;SDS011;56625;54.322;18.582;2023-03-04T00:07:10;11.00;;;3.70;;
69434;SDS011;56625;54.322;18.582;2023-03-04T00:09:37;17.60;;;4.70;;
69434;SDS011;56625;54.322;18.582;2023-03-04T00:12:04;10.40;;;3.30;;
69434;SDS011;56625;54.322;18.582;2023-03-04T00:14:33;13.70;;;3.50;;
69434;SDS011;56625;54.322;18.582;2023-03-04T00:16:59;11.20;;;3.50;;
69434;SDS011;56625;54.322;18.582;2023-03-04T00:19:29;9.50;;;3.50;;
69434;SDS011;56625;54.322;18.582;2023-03-04T00:21:56;10.40;;;3.50;;
69434;SDS011;56625;54.322;18.582;2023-03-04T00:24:23;9.00;;;3.10;;
69434;SDS011;56625;54.322;18.582;2023-03-04T00:26:50;10.40;;;4.00;;
69434;SDS011;56625;54.322;18.582;2023-03-04T00:29:17;12.40;;;3.70;;
69434;SDS011;56625;54.322;18.582;2023-03-04T00:31:43;9.70;;;2.70;;
69434;SDS011;56625;54.322;18.582;2023-03-04T00:34:10;9.40;;;3.20;;
69434;SDS011;56625;54.322;18.582;2023-03-04T00:36:36;12.00;;;3.70;;
69434;SDS011;56625;54.322;18.582;2023-03-04T00:39:02;10.70;;;2.70;;
69434;SDS011;56625;54.322;18.582;2023-03-04T00:41:29;8.40;;;2.90;;
69434;SDS011;56625;54.322;18.582;2023-03-04T00:43:55;12.60;;;3.30;;
69434;SDS011;56625;54.322;18.582;2023-03-04T00:46:22;11.30;;;3.30;;
69434;SDS011;56625;54.322;18.582;2023-03-04T00:48:48;10.70;;;3.20;;
69434;SDS011;56625;54.322;18.582;2023-03-04T00:51:14;9.00;;;2.60;;
69434;SDS011;56625;54.322;18.582;2023-03-04T00:53:41;9.50;;;2.70;;
69434;SDS011;56625;54.322;18.582;2023-03-04T00:56:07;10.30;;;2.70;;
69434;SDS011;56625;54.322;18.582;2023-03-04T00:58:34;7.40;;;2.10;;
69434;SDS011;56625;54.322;18.582;2023-03-04T01:01:00;10.40;;;2.40;;
69434;SDS011;56625;54.322;18.582;2023-03-04T01:03:27;10.40;;;3.40;;
69434;SDS011;56625;54.322;18.582;2023-03-04T01:05:56;10.40;;;3.10;;
69434;SDS011;56625;54.322;18.582;2023-03-04T01:08:23;10.30;;;2.60;;
69434;SDS011;56625;54.322;18.582;2023-03-04T01:10:50;10.70;;;2.40;;
69434;SDS011;56625;54.322;18.582;2023-03-04T01:13:16;10.10;;;2.40;;
69434;SDS011;56625;54.322;18.582;2023-03-04T01:15:43;8.00;;;2.80;;
69434;SDS011;56625;54.322;18.582;2023-03-04T01:18:10;7.90;;;2.30;;
69434;SDS011;56625;54.322;18.582;2023-03-04T01:20:36;9.90;;;2.10;;
69434;SDS011;56625;54.322;18.582;2023-03-04T01:23:03;13.20;;;3.10;;
69434;SDS011;56625;54.322;18.582;2023-03-04T01:25:29;10.70;;;3.20;;
69434;SDS011;56625;54.322;18.582;2023-03-04T01:27:55;8.50;;;3.10;;
69434;SDS011;56625;54.322;18.582;2023-03-04T01:30:22;6.30;;;1.90;;
69434;SDS011;56625;54.322;18.582;2023-03-04T01:32:48;8.20;;;1.90;;
69434;SDS011;56625;54.322;18.582;2023-03-04T01:35:15;13.40;;;2.30;;
69434;SDS011;56625;54.322;18.582;2023-03-04T01:37:44;11.70;;;2.70;;
69434;SDS011;56625;54.322;18.582;2023-03-04T01:40:11;13.50;;;3.70;;
69434;SDS011;56625;54.322;18.582;2023-03-04T01:42:38;9.00;;;2.10;;
69434;SDS011;56625;54.322;18.582;2023-03-04T01:45:06;10.20;;;2.90;;
69434;SDS011;56625;54.322;18.582;2023-03-04T01:47:36;11.50;;;2.60;;
69434;SDS011;56625;54.322;18.582;2023-03-04T01:50:06;9.30;;;2.40;;
69434;SDS011;56625;54.322;18.582;2023-03-04T01:52:39;13.20;;;3.60;;
69434;SDS011;56625;54.322;18.582;2023-03-04T01:55:20;9.30;;;2.50;;
69434;SDS011;56625;54.322;18.582;2023-03-04T01:57:49;9.30;;;2.10;;
69434;SDS011;56625;54.322;18.582;2023-03-04T02:03:00;12.10;;;2.60;;
69434;SDS011;56625;54.322;18.582;2023-03-04T02:05:30;6.40;;;1.70;;
69434;SDS011;56625;54.322;18.582;2023-03-04T02:07:57;10.90;;;2.70;;
69434;SDS011;56625;54.322;18.582;2023-03-04T02:10:27;9.50;;;1.70;;
69434;SDS011;56625;54.322;18.582;2023-03-04T02:12:54;8.00;;;2.40;;
69434;SDS011;56625;54.322;18.582;2023-03-04T02:15:21;6.50;;;1.70;;
69434;SDS011;56625;54.322;18.582;2023-03-04T02:17:48;9.30;;;2.00;;
69434;SDS011;56625;54.322;18.582;2023-03-04T02:20:27;8.70;;;2.50;;
69434;SDS011;56625;54.322;18.582;2023-03-04T02:23:25;9.40;;;2.70;;
69434;SDS011;56625;54.322;18.582;2023-03-04T02:26:19;12.90;;;1.90;;
69434;SDS011;56625;54.322;18.582;2023-03-04T02:28:50;11.20;;;2.60;;
69434;SDS011;56625;54.322;18.582;2023-03-04T02:31:25;11.00;;;1.90;;
69434;SDS011;56625;54.322;18.582;2023-03-04T02:36:52;5.60;;;1.40;;
69434;SDS011;56625;54.322;18.582;2023-03-04T02:41:47;7.80;;;1.60;;
69434;SDS011;56625;54.322;18.582;2023-03-04T02:44:19;7.70;;;1.10;;
69434;SDS011;56625;54.322;18.582;2023-03-04T02:46:54;9.50;;;1.90;;
69434;SDS011;56625;54.322;18.582;2023-03-04T02:49:23;10.90;;;1.80;;
69434;SDS011;56625;54.322;18.582;2023-03-04T02:51:52;8.00;;;1.80;;
69434;SDS011;56625;54.322;18.582;2023-03-04T02:54:25;7.70;;;1.10;;
69434;SDS011;56625;54.322;18.582;2023-03-04T02:56:54;10.20;;;1.70;;
69434;SDS011;56625;54.322;18.582;2023-03-04T02:59:22;8.70;;;1.30;;
69434;SDS011;56625;54.322;18.582;2023-03-04T03:01:49;5.80;;;1.10;;
69434;SDS011;56625;54.322;18.582;2023-03-04T03:04:17;10.00;;;1.70;;
69434;SDS011;56625;54.322;18.582;2023-03-04T03:06:45;6.90;;;1.20;;
69434;SDS011;56625;54.322;18.582;2023-03-04T03:09:11;5.30;;;0.90;;
69434;SDS011;56625;54.322;18.582;2023-03-04T03:11:37;11.80;;;1.70;;
69434;SDS011;56625;54.322;18.582;2023-03-04T03:14:04;11.10;;;2.10;;
69434;SDS011;56625;54.322;18.582;2023-03-04T03:16:31;11.60;;;1.70;;
69434;SDS011;56625;54.322;18.582;2023-03-04T03:18:58;11.20;;;1.40;;
69434;SDS011;56625;54.322;18.582;2023-03-04T03:21:24;7.40;;;1.40;;
69434;SDS011;56625;54.322;18.582;2023-03-04T03:23:51;6.80;;;1.40;;
69434;SDS011;56625;54.322;18.582;2023-03-04T03:26:18;7.30;;;1.30;;
69434;SDS011;56625;54.322;18.582;2023-03-04T03:28:45;10.50;;;1.90;;
69434;SDS011;56625;54.322;18.582;2023-03-04T03:31:13;9.00;;;1.20;;
69434;SDS011;56625;54.322;18.582;2023-03-04T03:33:39;6.60;;;1.10;;
69434;SDS011;56625;54.322;18.582;2023-03-04T03:36:07;4.10;;;0.90;;
69434;SDS011;56625;54.322;18.582;2023-03-04T03:38:34;4.70;;;0.80;;
69434;SDS011;56625;54.322;18.582;2023-03-04T03:41:01;16.30;;;1.40;;
69434;SDS011;56625;54.322;18.582;2023-03-04T03:43:27;7.30;;;1.40;;
69434;SDS011;56625;54.322;18.582;2023-03-04T03:45:54;6.50;;;1.10;;
69434;SDS011;56625;54.322;18.582;2023-03-04T03:48:20;7.30;;;1.30;;
69434;SDS011;56625;54.322;18.582;2023-03-04T03:50:47;10.30;;;1.70;;
69434;SDS011;56625;54.322;18.582;2023-03-04T03:53:13;8.50;;;1.10;;
69434;SDS011;56625;54.322;18.582;2023-03-04T03:55:40;11.70;;;1.70;;
69434;SDS011;56625;54.322;18.582;2023-03-04T03:58:07;4.10;;;0.70;;
69434;SDS011;56625;54.322;18.582;2023-03-04T04:00:33;6.70;;;1.50;;
69434;SDS011;56625;54.322;18.582;2023-03-04T04:03:00;5.20;;;0.80;;
69434;SDS011;56625;54.322;18.582;2023-03-04T04:05:27;4.90;;;1.00;;
69434;SDS011;56625;54.322;18.582;2023-03-04T04:07:54;10.60;;;1.50;;
69434;SDS011;56625;54.322;18.582;2023-03-04T04:10:21;4.70;;;0.80;;
69434;SDS011;56625;54.322;18.582;2023-03-04T04:12:47;9.00;;;1.50;;
69434;SDS011;56625;54.322;18.582;2023-03-04T04:15:14;3.80;;;0.60;;
69434;SDS011;56625;54.322;18.582;2023-03-04T04:17:40;9.50;;;1.00;;
69434;SDS011;56625;54.322;18.582;2023-03-04T04:20:09;5.00;;;1.00;;
69434;SDS011;56625;54.322;18.582;2023-03-04T04:22:36;9.80;;;1.50;;
69434;SDS011;56625;54.322;18.582;2023-03-04T04:25:02;5.40;;;1.00;;
69434;SDS011;56625;54.322;18.582;2023-03-04T04:27:30;8.30;;;1.20;;
69434;SDS011;56625;54.322;18.582;2023-03-04T04:29:56;10.60;;;1.60;;
69434;SDS011;56625;54.322;18.582;2023-03-04T04:32:22;9.30;;;1.30;;
69434;SDS011;56625;54.322;18.582;2023-03-04T04:34:49;7.50;;;0.90;;
69434;SDS011;56625;54.322;18.582;2023-03-04T04:37:15;5.00;;;0.80;;
69434;SDS011;56625;54.322;18.582;2023-03-04T04:39:42;11.90;;;1.80;;
69434;SDS011;56625;54.322;18.582;2023-03-04T04:42:09;6.50;;;1.00;;
69434;SDS011;56625;54.322;18.582;2023-03-04T04:44:36;13.60;;;2.60;;
69434;SDS011;56625;54.322;18.582;2023-03-04T04:47:05;6.10;;;0.90;;
69434;SDS011;56625;54.322;18.582;2023-03-04T04:49:32;7.50;;;0.80;;
69434;SDS011;56625;54.322;18.582;2023-03-04T04:51:59;9.00;;;1.20;;
69434;SDS011;56625;54.322;18.582;2023-03-04T04:54:25;10.30;;;1.60;;
69434;SDS011;56625;54.322;18.582;2023-03-04T04:56:52;5.90;;;1.00;;
69434;SDS011;56625;54.322;18.582;2023-03-04T04:59:19;7.90;;;0.70;;
69434;SDS011;56625;54.322;18.582;2023-03-04T05:01:46;11.80;;;2.30;;
69434;SDS011;56625;54.322;18.582;2023-03-04T05:04:12;9.00;;;1.10;;
69434;SDS011;56625;54.322;18.582;2023-03-04T05:06:39;4.20;;;0.70;;
69434;SDS011;56625;54.322;18.582;2023-03-04T05:09:06;11.50;;;1.50;;
69434;SDS011;56625;54.322;18.582;2023-03-04T05:11:32;9.40;;;0.90;;
69434;SDS011;56625;54.322;18.582;2023-03-04T05:13:59;8.20;;;1.30;;
69434;SDS011;56625;54.322;18.582;2023-03-04T05:16:26;4.40;;;0.70;;
69434;SDS011;56625;54.322;18.582;2023-03-04T05:18:53;8.00;;;0.90;;
69434;SDS011;56625;54.322;18.582;2023-03-04T05:21:19;8.00;;;1.40;;
69434;SDS011;56625;54.322;18.582;2023-03-04T05:23:46;5.60;;;0.80;;
69434;SDS011;56625;54.322;18.582;2023-03-04T05:26:15;7.10;;;1.40;;
69434;SDS011;56625;54.322;18.582;2023-03-04T05:28:43;5.20;;;0.90;;
69434;SDS011;56625;54.322;18.582;2023-03-04T05:31:11;6.30;;;1.20;;
69434;SDS011;56625;54.322;18.582;2023-03-04T05:33:37;8.70;;;1.10;;
69434;SDS011;56625;54.322;18.582;2023-03-04T05:36:05;8.80;;;1.00;;
69434;SDS011;56625;54.322;18.582;2023-03-04T05:38:33;9.70;;;1.10;;
69434;SDS011;56625;54.322;18.582;2023-03-04T05:41:03;5.90;;;1.00;;
69434;SDS011;56625;54.322;18.582;2023-03-04T05:43:32;7.30;;;1.40;;
69434;SDS011;56625;54.322;18.582;2023-03-04T05:46:02;5.00;;;0.90;;
69434;SDS011;56625;54.322;18.582;2023-03-04T05:48:29;6.60;;;0.60;;
69434;SDS011;56625;54.322;18.582;2023-03-04T05:50:59;6.70;;;0.70;;
69434;SDS011;56625;54.322;18.582;2023-03-04T05:53:27;5.50;;;0.70;;
69434;SDS011;56625;54.322;18.582;2023-03-04T05:55:54;8.00;;;0.90;;
69434;SDS011;56625;54.322;18.582;2023-03-04T05:58:21;4.10;;;0.80;;
69434;SDS011;56625;54.322;18.582;2023-03-04T06:00:48;6.60;;;0.90;;
69434;SDS011;56625;54.322;18.582;2023-03-04T06:03:16;3.80;;;0.90;;
69434;SDS011;56625;54.322;18.582;2023-03-04T06:05:45;5.50;;;0.90;;
69434;SDS011;56625;54.322;18.582;2023-03-04T06:08:12;5.80;;;0.50;;
69434;SDS011;56625;54.322;18.582;2023-03-04T06:10:40;4.00;;;0.60;;
69434;SDS011;56625;54.322;18.582;2023-03-04T06:13:08;8.30;;;0.80;;
69434;SDS011;56625;54.322;18.582;2023-03-04T06:15:36;8.20;;;1.10;;
69434;SDS011;56625;54.322;18.582;2023-03-04T06:18:04;6.40;;;0.60;;
69434;SDS011;56625;54.322;18.582;2023-03-04T06:20:31;5.90;;;1.10;;
69434;SDS011;56625;54.322;18.582;2023-03-04T06:22:57;3.70;;;0.60;;
69434;SDS011;56625;54.322;18.582;2023-03-04T06:25:24;6.80;;;1.00;;
69434;SDS011;56625;54.322;18.582;2023-03-04T06:27:51;4.40;;;0.70;;
69434;SDS011;56625;54.322;18.582;2023-03-04T06:30:21;4.90;;;1.00;;
69434;SDS011;56625;54.322;18.582;2023-03-04T06:32:48;9.20;;;0.60;;
69434;SDS011;56625;54.322;18.582;2023-03-04T06:35:15;8.60;;;1.20;;
69434;SDS011;56625;54.322;18.582;2023-03-04T06:37:42;7.00;;;0.60;;
69434;SDS011;56625;54.322;18.582;2023-03-04T06:40:10;6.10;;;0.80;;
69434;SDS011;56625;54.322;18.582;2023-03-04T06:42:38;4.90;;;0.70;;
69434;SDS011;56625;54.322;18.582;2023-03-04T06:45:06;4.40;;;0.80;;
69434;SDS011;56625;54.322;18.582;2023-03-04T06:47:33;7.70;;;1.40;;
69434;SDS011;56625;54.322;18.582;2023-03-04T06:50:00;4.90;;;1.10;;
69434;SDS011;56625;54.322;18.582;2023-03-04T06:52:28;3.80;;;0.50;;
69434;SDS011;56625;54.322;18.582;2023-03-04T06:54:54;2.70;;;0.50;;
69434;SDS011;56625;54.322;18.582;2023-03-04T06:57:21;6.10;;;0.70;;
69434;SDS011;56625;54.322;18.582;2023-03-04T06:59:47;5.70;;;0.50;;
69434;SDS011;56625;54.322;18.582;2023-03-04T07:02:13;4.80;;;0.60;;
69434;SDS011;56625;54.322;18.582;2023-03-04T07:04:40;7.20;;;0.50;;
69434;SDS011;56625;54.322;18.582;2023-03-04T07:07:06;7.60;;;0.60;;
69434;SDS011;56625;54.322;18.582;2023-03-04T07:09:33;4.10;;;0.60;;
69434;SDS011;56625;54.322;18.582;2023-03-04T07:11:59;9.50;;;0.90;;
69434;SDS011;56625;54.322;18.582;2023-03-04T07:14:26;3.70;;;0.50;;
69434;SDS011;56625;54.322;18.582;2023-03-04T07:16:53;5.00;;;0.70;;
69434;SDS011;56625;54.322;18.582;2023-03-04T07:19:20;10.90;;;1.40;;
69434;SDS011;56625;54.322;18.582;2023-03-04T07:21:47;5.80;;;1.00;;
69434;SDS011;56625;54.322;18.582;2023-03-04T07:24:13;5.80;;;0.70;;
69434;SDS011;56625;54.322;18.582;2023-03-04T07:26:40;6.60;;;0.90;;
69434;SDS011;56625;54.322;18.582;2023-03-04T07:29:07;9.30;;;1.00;;
69434;SDS011;56625;54.322;18.582;2023-03-04T07:31:34;8.30;;;1.10;;
69434;SDS011;56625;54.322;18.582;2023-03-04T07:34:06;7.10;;;0.80;;
69434;SDS011;56625;54.322;18.582;2023-03-04T07:36:36;5.20;;;0.90;;
69434;SDS011;56625;54.322;18.582;2023-03-04T07:39:03;9.50;;;1.00;;
69434;SDS011;56625;54.322;18.582;2023-03-04T07:41:31;4.70;;;0.60;;
69434;SDS011;56625;54.322;18.582;2023-03-04T07:44:03;5.60;;;1.10;;
69434;SDS011;56625;54.322;18.582;2023-03-04T07:46:30;6.00;;;0.90;;
69434;SDS011;56625;54.322;18.582;2023-03-04T07:48:57;5.80;;;0.90;;
69434;SDS011;56625;54.322;18.582;2023-03-04T07:51:25;7.00;;;1.70;;
69434;SDS011;56625;54.322;18.582;2023-03-04T07:53:56;4.50;;;0.70;;
69434;SDS011;56625;54.322;18.582;2023-03-04T07:56:27;4.00;;;0.80;;
69434;SDS011;56625;54.322;18.582;2023-03-04T07:58:56;6.30;;;0.90;;
69434;SDS011;56625;54.322;18.582;2023-03-04T08:01:28;6.50;;;0.90;;
69434;SDS011;56625;54.322;18.582;2023-03-04T08:03:57;6.00;;;0.80;;
69434;SDS011;56625;54.322;18.582;2023-03-04T08:06:25;4.90;;;0.60;;
69434;SDS011;56625;54.322;18.582;2023-03-04T08:09:02;2.70;;;0.20;;
69434;SDS011;56625;54.322;18.582;2023-03-04T08:11:32;1.40;;;0.10;;
69434;SDS011;56625;54.322;18.582;2023-03-04T08:14:00;3.30;;;0.20;;
69434;SDS011;56625;54.322;18.582;2023-03-04T08:16:27;3.30;;;0.20;;
69434;SDS011;56625;54.322;18.582;2023-03-04T08:18:55;1.90;;;0.20;;
69434;SDS011;56625;54.322;18.582;2023-03-04T08:21:25;2.00;;;0.10;;
69434;SDS011;56625;54.322;18.582;2023-03-04T08:23:53;1.90;;;0.10;;
69434;SDS011;56625;54.322;18.582;2023-03-04T08:26:28;4.30;;;0.50;;
69434;SDS011;56625;54.322;18.582;2023-03-04T08:29:01;3.20;;;0.40;;
69434;SDS011;56625;54.322;18.582;2023-03-04T08:31:30;2.10;;;0.30;;
69434;SDS011;56625;54.322;18.582;2023-03-04T08:33:57;2.20;;;0.10;;
69434;SDS011;56625;54.322;18.582;2023-03-04T08:36:24;3.50;;;0.40;;
69434;SDS011;56625;54.322;18.582;2023-03-04T08:38:50;2.70;;;0.10;;
69434;SDS011;56625;54.322;18.582;2023-03-04T08:41:16;2.70;;;0.20;;
69434;SDS011;56625;54.322;18.582;2023-03-04T08:43:43;2.70;;;0.10;;
69434;SDS011;56625;54.322;18.582;2023-03-04T08:46:10;3.10;;;0.20;;
69434;SDS011;56625;54.322;18.582;2023-03-04T08:48:36;4.40;;;0.40;;
69434;SDS011;56625;54.322;18.582;2023-03-04T08:51:11;4.60;;;0.50;;
69434;SDS011;56625;54.322;18.582;2023-03-04T08:53:39;2.30;;;0.10;;
69434;SDS011;56625;54.322;18.582;2023-03-04T08:56:06;1.60;;;0.10;;
69434;SDS011;56625;54.322;18.582;2023-03-04T08:58:37;3.30;;;0.20;;
69434;SDS011;56625;54.322;18.582;2023-03-04T09:01:07;4.10;;;0.20;;
69434;SDS011;56625;54.322;18.582;2023-03-04T09:03:35;1.20;;;0.10;;
69434;SDS011;56625;54.322;18.582;2023-03-04T09:06:03;2.60;;;0.50;;
69434;SDS011;56625;54.322;18.582;2023-03-04T09:08:31;3.90;;;0.40;;
69434;SDS011;56625;54.322;18.582;2023-03-04T09:10:58;1.90;;;0.10;;
69434;SDS011;56625;54.322;18.582;2023-03-04T09:13:28;3.60;;;0.30;;
69434;SDS011;56625;54.322;18.582;2023-03-04T09:15:56;2.20;;;0.30;;
69434;SDS011;56625;54.322;18.582;2023-03-04T09:18:24;2.50;;;0.40;;
69434;SDS011;56625;54.322;18.582;2023-03-04T09:20:51;2.00;;;0.10;;
69434;SDS011;56625;54.322;18.582;2023-03-04T09:23:19;2.10;;;0.20;;
69434;SDS011;56625;54.322;18.582;2023-03-04T09:25:46;0.90;;;0.00;;
69434;SDS011;56625;54.322;18.582;2023-03-04T09:28:15;1.30;;;0.20;;
69434;SDS011;56625;54.322;18.582;2023-03-04T09:30:43;2.10;;;0.10;;
69434;SDS011;56625;54.322;18.582;2023-03-04T09:33:11;1.90;;;0.10;;
69434;SDS011;56625;54.322;18.582;2023-03-04T09:35:38;1.70;;;0.20;;
69434;SDS011;56625;54.322;18.582;2023-03-04T09:38:05;1.30;;;0.10;;
69434;SDS011;56625;54.322;18.582;2023-03-04T09:43:15;3.10;;;0.10;;
69434;SDS011;56625;54.322;18.582;2023-03-04T09:45:52;2.30;;;0.10;;
69434;SDS011;56625;54.322;18.582;2023-03-04T09:48:24;1.20;;;0.10;;
69434;SDS011;56625;54.322;18.582;2023-03-04T09:56:37;2.10;;;0.10;;
69434;SDS011;56625;54.322;18.582;2023-03-04T10:09:09;2.00;;;0.10;;
69434;SDS011;56625;54.322;18.582;2023-03-04T10:11:43;2.50;;;0.20;;
69434;SDS011;56625;54.322;18.582;2023-03-04T10:14:32;2.60;;;0.10;;
69434;SDS011;56625;54.322;18.582;2023-03-04T10:17:39;2.70;;;0.30;;
69434;SDS011;56625;54.322;18.582;2023-03-04T10:20:17;2.00;;;0.10;;
69434;SDS011;56625;54.322;18.582;2023-03-04T10:22:55;2.20;;;0.20;;
69434;SDS011;56625;54.322;18.582;2023-03-04T10:25:28;1.80;;;0.10;;
69434;SDS011;56625;54.322;18.582;2023-03-04T10:28:26;2.00;;;0.10;;
69434;SDS011;56625;54.322;18.582;2023-03-04T10:31:14;1.00;;;0.00;;
69434;SDS011;56625;54.322;18.582;2023-03-04T10:33:42;2.60;;;0.10;;
69434;SDS011;56625;54.322;18.582;2023-03-04T10:38:41;2.90;;;0.20;;
69434;SDS011;56625;54.322;18.582;2023-03-04T10:41:23;2.70;;;0.30;;
69434;SDS011;56625;54.322;18.582;2023-03-04T10:46:23;6.30;;;0.40;;
69434;SDS011;56625;54.322;18.582;2023-03-04T10:48:53;4.70;;;0.40;;
69434;SDS011;56625;54.322;18.582;2023-03-04T10:51:23;1.90;;;0.10;;
69434;SDS011;56625;54.322;18.582;2023-03-04T10:53:56;2.30;;;0.10;;
69434;SDS011;56625;54.322;18.582;2023-03-04T10:56:42;3.40;;;0.40;;
69434;SDS011;56625;54.322;18.582;2023-03-04T11:01:59;3.60;;;0.30;;
69434;SDS011;56625;54.322;18.582;2023-03-04T11:04:33;2.10;;;0.10;;
69434;SDS011;56625;54.322;18.582;2023-03-04T11:06:59;4.50;;;0.30;;
69434;SDS011;56625;54.322;18.582;2023-03-04T11:09:29;2.40;;;0.20;;
69434;SDS011;56625;54.322;18.582;2023-03-04T11:12:01;1.10;;;0.10;;
69434;SDS011;56625;54.322;18.582;2023-03-04T11:14:40;0.50;;;0.00;;
69434;SDS011;56625;54.322;18.582;2023-03-04T11:17:18;1.60;;;0.10;;
69434;SDS011;56625;54.322;18.582;2023-03-04T11:19:51;2.60;;;0.10;;
69434;SDS011;56625;54.322;18.582;2023-03-04T11:22:23;3.10;;;0.10;;
69434;SDS011;56625;54.322;18.582;2023-03-04T11:25:00;1.10;;;0.10;;
69434;SDS011;56625;54.322;18.582;2023-03-04T11:27:45;2.40;;;0.30;;
69434;SDS011;56625;54.322;18.582;2023-03-04T11:30:40;3.30;;;0.50;;
69434;SDS011;56625;54.322;18.582;2023-03-04T11:33:12;2.40;;;0.20;;
69434;SDS011;56625;54.322;18.582;2023-03-04T11:35:58;3.40;;;0.10;;
69434;SDS011;56625;54.322;18.582;2023-03-04T11:38:32;1.80;;;0.20;;
69434;SDS011;56625;54.322;18.582;2023-03-04T11:41:08;2.50;;;0.30;;
69434;SDS011;56625;54.322;18.582;2023-03-04T11:43:44;3.60;;;0.20;;
69434;SDS011;56625;54.322;18.582;2023-03-04T11:46:31;1.70;;;0.10;;
69434;SDS011;56625;54.322;18.582;2023-03-04T11:58:08;3.10;;;0.20;;
69434;SDS011;56625;54.322;18.582;2023-03-04T12:06:24;1.40;;;0.00;;
69434;SDS011;56625;54.322;18.582;2023-03-04T12:15:07;1.50;;;0.10;;
69434;SDS011;56625;54.322;18.582;2023-03-04T12:21:02;3.50;;;0.30;;
69434;SDS011;56625;54.322;18.582;2023-03-04T12:32:55;0.40;;;0.00;;
69434;SDS011;56625;54.322;18.582;2023-03-04T12:38:58;2.00;;;0.10;;
69434;SDS011;56625;54.322;18.582;2023-03-04T12:41:57;3.80;;;0.10;;
69434;SDS011;56625;54.322;18.582;2023-03-04T12:44:37;2.40;;;0.10;;
69434;SDS011;56625;54.322;18.582;2023-03-04T12:47:40;1.60;;;0.00;;
69434;SDS011;56625;54.322;18.582;2023-03-04T12:56:50;2.00;;;0.20;;
69434;SDS011;56625;54.322;18.582;2023-03-04T12:59:21;3.50;;;0.40;;
69434;SDS011;56625;54.322;18.582;2023-03-04T13:01:58;1.00;;;0.10;;
69434;SDS011;56625;54.322;18.582;2023-03-04T13:07:55;4.80;;;0.10;;
69434;SDS011;56625;54.322;18.582;2023-03-04T13:10:30;3.20;;;0.10;;
69434;SDS011;56625;54.322;18.582;2023-03-04T13:12:58;0.90;;;0.00;;
69434;SDS011;56625;54.322;18.582;2023-03-04T13:15:30;0.20;;;0.00;;
69434;SDS011;56625;54.322;18.582;2023-03-04T13:18:00;1.50;;;0.10;;
69434;SDS011;56625;54.322;18.582;2023-03-04T13:21:04;0.60;;;0.00;;
69434;SDS011;56625;54.322;18.582;2023-03-04T13:23:31;2.20;;;0.10;;
69434;SDS011;56625;54.322;18.582;2023-03-04T13:28:27;1.60;;;0.10;;
69434;SDS011;56625;54.322;18.582;2023-03-04T13:35:57;1.70;;;0.00;;
69434;SDS011;56625;54.322;18.582;2023-03-04T13:43:45;1.90;;;0.20;;
69434;SDS011;56625;54.322;18.582;2023-03-04T13:51:37;2.70;;;0.40;;
69434;SDS011;56625;54.322;18.582;2023-03-04T13:54:13;1.50;;;0.20;;
69434;SDS011;56625;54.322;18.582;2023-03-04T13:56:48;0.90;;;0.00;;
69434;SDS011;56625;54.322;18.582;2023-03-04T14:00:11;2.50;;;0.20;;
69434;SDS011;56625;54.322;18.582;2023-03-04T14:02:46;2.50;;;0.10;;
69434;SDS011;56625;54.322;18.582;2023-03-04T14:05:17;3.00;;;0.30;;
69434;SDS011;56625;54.322;18.582;2023-03-04T14:07:44;2.20;;;0.20;;
69434;SDS011;56625;54.322;18.582;2023-03-04T14:12:43;1.00;;;0.00;;
69434;SDS011;56625;54.322;18.582;2023-03-04T14:15:30;2.90;;;0.20;;
69434;SDS011;56625;54.322;18.582;2023-03-04T14:18:02;3.30;;;0.20;;
69434;SDS011;56625;54.322;18.582;2023-03-04T14:20:36;2.20;;;0.20;;
69434;SDS011;56625;54.322;18.582;2023-03-04T14:23:32;0.40;;;0.10;;
69434;SDS011;56625;54.322;18.582;2023-03-04T14:28:48;1.90;;;0.10;;
69434;SDS011;56625;54.322;18.582;2023-03-04T14:31:24;3.70;;;0.30;;
69434;SDS011;56625;54.322;18.582;2023-03-04T14:33:58;3.00;;;0.30;;
69434;SDS011;56625;54.322;18.582;2023-03-04T14:36:30;1.60;;;0.10;;
69434;SDS011;56625;54.322;18.582;2023-03-04T14:39:02;3.00;;;0.10;;
69434;SDS011;56625;54.322;18.582;2023-03-04T14:41:35;3.70;;;0.20;;
69434;SDS011;56625;54.322;18.582;2023-03-04T14:46:52;1.10;;;0.00;;
69434;SDS011;56625;54.322;18.582;2023-03-04T14:49:35;2.80;;;0.30;;
69434;SDS011;56625;54.322;18.582;2023-03-04T14:52:03;1.90;;;0.10;;
69434;SDS011;56625;54.322;18.582;2023-03-04T14:54:38;2.30;;;0.10;;
69434;SDS011;56625;54.322;18.582;2023-03-04T14:57:22;3.10;;;0.30;;
69434;SDS011;56625;54.322;18.582;2023-03-04T14:59:52;3.20;;;0.10;;
69434;SDS011;56625;54.322;18.582;2023-03-04T15:02:28;1.10;;;0.10;;
69434;SDS011;56625;54.322;18.582;2023-03-04T15:05:18;1.80;;;0.10;;
69434;SDS011;56625;54.322;18.582;2023-03-04T15:10:32;1.80;;;0.10;;
69434;SDS011;56625;54.322;18.582;2023-03-04T15:13:02;2.10;;;0.00;;
69434;SDS011;56625;54.322;18.582;2023-03-04T15:15:45;0.80;;;0.10;;
69434;SDS011;56625;54.322;18.582;2023-03-04T15:18:24;2.70;;;0.30;;
69434;SDS011;56625;54.322;18.582;2023-03-04T15:23:46;1.70;;;0.20;;
69434;SDS011;56625;54.322;18.582;2023-03-04T15:26:12;2.00;;;0.10;;
69434;SDS011;56625;54.322;18.582;2023-03-04T15:28:40;2.10;;;0.10;;
69434;SDS011;56625;54.322;18.582;2023-03-04T15:31:18;1.40;;;0.10;;
69434;SDS011;56625;54.322;18.582;2023-03-04T15:33:47;1.50;;;0.40;;
69434;SDS011;56625;54.322;18.582;2023-03-04T15:36:21;2.50;;;0.10;;
69434;SDS011;56625;54.322;18.582;2023-03-04T15:38:51;2.70;;;0.20;;
69434;SDS011;56625;54.322;18.582;2023-03-04T15:41:25;1.60;;;0.10;;
69434;SDS011;56625;54.322;18.582;2023-03-04T15:43:53;5.10;;;0.20;;
69434;SDS011;56625;54.322;18.582;2023-03-04T15:46:20;1.10;;;0.00;;
69434;SDS011;56625;54.322;18.582;2023-03-04T15:48:50;3.40;;;0.30;;
69434;SDS011;56625;54.322;18.582;2023-03-04T15:51:19;2.60;;;0.20;;
69434;SDS011;56625;54.322;18.582;2023-03-04T15:53:52;3.10;;;0.20;;
69434;SDS011;56625;54.322;18.582;2023-03-04T15:56:30;2.80;;;0.20;;
69434;SDS011;56625;54.322;18.582;2023-03-04T15:59:05;4.90;;;0.40;;
69434;SDS011;56625;54.322;18.582;2023-03-04T16:01:39;3.40;;;0.30;;
69434;SDS011;56625;54.322;18.582;2023-03-04T16:04:12;1.30;;;0.10;;
69434;SDS011;56625;54.322;18.582;2023-03-04T16:06:44;2.90;;;0.30;;
69434;SDS011;56625;54.322;18.582;2023-03-04T16:09:15;3.00;;;0.30;;
69434;SDS011;56625;54.322;18.582;2023-03-04T16:11:45;4.30;;;0.50;;
69434;SDS011;56625;54.322;18.582;2023-03-04T16:14:13;2.40;;;0.30;;
69434;SDS011;56625;54.322;18.582;2023-03-04T16:16:41;4.60;;;0.50;;
69434;SDS011;56625;54.322;18.582;2023-03-04T16:19:09;3.40;;;0.70;;
69434;SDS011;56625;54.322;18.582;2023-03-04T16:21:35;3.70;;;0.40;;
69434;SDS011;56625;54.322;18.582;2023-03-04T16:24:02;5.60;;;0.80;;
69434;SDS011;56625;54.322;18.582;2023-03-04T16:26:33;4.70;;;0.80;;
69434;SDS011;56625;54.322;18.582;2023-03-04T16:29:03;2.70;;;0.30;;
69434;SDS011;56625;54.322;18.582;2023-03-04T16:31:30;3.00;;;0.50;;
69434;SDS011;56625;54.322;18.582;2023-03-04T16:33:56;5.80;;;0.70;;
69434;SDS011;56625;54.322;18.582;2023-03-04T16:36:25;3.50;;;0.30;;
69434;SDS011;56625;54.322;18.582;2023-03-04T16:38:58;5.80;;;1.00;;
69434;SDS011;56625;54.322;18.582;2023-03-04T16:41:28;5.90;;;1.00;;
69434;SDS011;56625;54.322;18.582;2023-03-04T16:44:00;6.70;;;0.70;;
69434;SDS011;56625;54.322;18.582;2023-03-04T16:46:27;4.70;;;0.60;;